Time;durP1;ratioP1;P1;durP2;ratioP2;P2;SDS_P1;SDS_P2;PMS_P1;PMS_P2;Temp;Humidity;BMP_temperature;BMP_pressure;BME280_temperature;BME280_humidity;BME280_pressure;Samples;Min_cycle;Max_cycle;Signal;HPM_P1;HPM_P2
2022/06/26 00:00:09;;;;;;;1.15;0.75;;;;;;;;;;514681;28;1495;-86
2022/06/26 00:00:25;;;;;;;1.25;0.82;;;;;;;;;;513948;28;1699;-86
2022/06/26 00:00:40;;;;;;;1.37;0.80;;;;;;;;;;516457;28;1283;-86
2022/06/26 00:00:59;;;;;;;1.52;0.80;;;;;;;;;;516241;28;1468;-86
2022/06/26 00:01:15;;;;;;;1.50;0.75;;;;;;;;;;515244;28;1583;-86
2022/06/26 00:01:31;;;;;;;1.33;0.70;;;;;;;;;;516284;28;1655;-86
2022/06/26 00:01:46;;;;;;;1.10;0.70;;;;;;;;;;515063;28;1483;-86
2022/06/26 00:02:02;;;;;;;0.88;0.80;;;;;;;;;;516023;28;1432;-85
2022/06/26 00:02:18;;;;;;;0.90;0.70;;;;;;;;;;517005;28;1979;-86
2022/06/26 00:02:34;;;;;;;1.52;0.70;;;;;;;;;;512703;28;1275;-86
2022/06/26 00:02:49;;;;;;;1.40;0.77;;;;;;;;;;515050;28;1608;-85
2022/06/26 00:03:04;;;;;;;1.20;0.80;;;;;;;;;;511186;28;1328;-85
2022/06/26 00:03:20;;;;;;;1.27;0.90;;;;;;;;;;511507;29;1208;-85
2022/06/26 00:03:35;;;;;;;1.37;0.80;;;;;;;;;;511978;29;759;-86
2022/06/26 00:03:51;;;;;;;1.17;0.70;;;;;;;;;;515621;28;1323;-86
2022/06/26 00:04:06;;;;;;;1.67;0.70;;;;;;;;;;515919;28;856;-86
2022/06/26 00:04:22;;;;;;;1.63;0.70;;;;;;;;;;517680;28;1366;-86
2022/06/26 00:04:37;;;;;;;0.97;0.70;;;;;;;;;;519157;28;1459;-86
2022/06/26 00:04:53;;;;;;;0.95;0.63;;;;;;;;;;514898;28;1655;-86
2022/06/26 00:05:10;;;;;;;1.10;0.67;;;;;;;;;;515259;28;1571;-86
2022/06/26 00:05:25;;;;;;;1.88;0.80;;;;;;;;;;518052;28;1377;-86
2022/06/26 00:05:41;;;;;;;2.10;0.77;;;;;;;;;;514648;28;1390;-86
2022/06/26 00:05:56;;;;;;;2.00;0.70;;;;;;;;;;516252;28;1487;-86
2022/06/26 00:06:11;;;;;;;1.20;0.70;;;;;;;;;;513209;28;1641;-85
2022/06/26 00:06:27;;;;;;;0.63;0.60;;;;;;;;;;513712;28;1700;-85
2022/06/26 00:06:43;;;;;;;1.15;0.60;;;;;;;;;;517031;28;1190;-86
2022/06/26 00:07:00;;;;;;;2.10;0.80;;;;;;;;;;517088;28;1163;-85
2022/06/26 00:07:16;;;;;;;1.90;0.80;;;;;;;;;;515059;28;1319;-85
2022/06/26 00:07:31;;;;;;;1.50;0.70;;;;;;;;;;515070;28;1503;-85
2022/06/26 00:07:47;;;;;;;1.40;0.70;;;;;;;;;;515496;28;1518;-85
2022/06/26 00:08:03;;;;;;;1.37;0.73;;;;;;;;;;515316;28;1576;-85
2022/06/26 00:08:18;;;;;;;1.90;0.80;;;;;;;;;;515330;28;1271;-85
2022/06/26 00:08:33;;;;;;;1.85;0.73;;;;;;;;;;515392;28;1601;-85
2022/06/26 00:08:49;;;;;;;1.43;0.70;;;;;;;;;;516396;28;1260;-85
2022/06/26 00:09:05;;;;;;;1.40;0.70;;;;;;;;;;517168;28;1572;-85
2022/06/26 00:09:20;;;;;;;1.08;0.70;;;;;;;;;;515500;28;1356;-86
2022/06/26 00:09:37;;;;;;;0.93;0.77;;;;;;;;;;517569;28;1737;-85
2022/06/26 00:09:52;;;;;;;1.00;0.82;;;;;;;;;;515987;28;1465;-85
2022/06/26 00:10:08;;;;;;;1.00;0.70;;;;;;;;;;515776;28;856;-85
2022/06/26 00:10:24;;;;;;;0.90;0.60;;;;;;;;;;513640;28;1195;-85
2022/06/26 00:10:39;;;;;;;1.05;0.60;;;;;;;;;;514242;28;1543;-85
2022/06/26 00:10:55;;;;;;;1.90;0.60;;;;;;;;;;515145;28;853;-85
2022/06/26 00:11:11;;;;;;;2.20;0.60;;;;;;;;;;511607;29;1320;-85
2022/06/26 00:11:27;;;;;;;1.40;0.60;;;;;;;;;;511716;28;1918;-85
2022/06/26 00:11:42;;;;;;;1.60;0.70;;;;;;;;;;510417;29;1643;-87
2022/06/26 00:11:58;;;;;;;1.57;0.60;;;;;;;;;;511444;28;1534;-86
2022/06/26 00:12:13;;;;;;;0.82;0.50;;;;;;;;;;513786;28;1331;-86
2022/06/26 00:12:29;;;;;;;0.70;0.52;;;;;;;;;;515196;28;1584;-86
2022/06/26 00:12:44;;;;;;;1.10;0.63;;;;;;;;;;515759;28;1547;-86
2022/06/26 00:12:59;;;;;;;1.47;0.73;;;;;;;;;;515775;28;1395;-86
2022/06/26 00:13:15;;;;;;;1.05;0.70;;;;;;;;;;513494;28;1493;-86
2022/06/26 00:13:30;;;;;;;0.60;0.60;;;;;;;;;;511932;28;1819;-86
2022/06/26 00:13:46;;;;;;;1.98;0.60;;;;;;;;;;514753;28;1750;-86
2022/06/26 00:14:02;;;;;;;2.17;0.60;;;;;;;;;;511837;28;1554;-86
2022/06/26 00:14:18;;;;;;;1.20;0.60;;;;;;;;;;513367;28;1449;-86
2022/06/26 00:14:34;;;;;;;0.80;0.60;;;;;;;;;;512818;28;1460;-86
2022/06/26 00:14:49;;;;;;;1.13;0.70;;;;;;;;;;514761;28;1564;-85
2022/06/26 00:15:05;;;;;;;1.80;0.70;;;;;;;;;;515854;28;1240;-86
2022/06/26 00:15:21;;;;;;;1.65;0.60;;;;;;;;;;517540;28;1633;-85
2022/06/26 00:15:36;;;;;;;1.33;0.60;;;;;;;;;;517769;28;1625;-85
2022/06/26 00:15:52;;;;;;;1.30;0.55;;;;;;;;;;518457;28;1463;-86
2022/06/26 00:16:07;;;;;;;0.80;0.50;;;;;;;;;;520363;28;1459;-86
2022/06/26 00:16:23;;;;;;;0.60;0.50;;;;;;;;;;517409;28;1441;-86
2022/06/26 00:16:38;;;;;;;0.80;0.53;;;;;;;;;;518615;28;1415;-86
2022/06/26 00:16:54;;;;;;;1.63;0.50;;;;;;;;;;518809;28;1486;-85
2022/06/26 00:17:09;;;;;;;1.45;0.50;;;;;;;;;;517728;28;1445;-86
2022/06/26 00:17:25;;;;;;;1.37;0.60;;;;;;;;;;518406;28;1549;-86
2022/06/26 00:17:40;;;;;;;1.50;0.70;;;;;;;;;;517808;28;1361;-86
2022/06/26 00:17:55;;;;;;;1.00;0.70;;;;;;;;;;516096;28;1711;-86
2022/06/26 00:18:11;;;;;;;0.90;0.60;;;;;;;;;;516444;28;1372;-86
2022/06/26 00:18:27;;;;;;;1.08;0.60;;;;;;;;;;519313;28;1074;-85
2022/06/26 00:18:42;;;;;;;1.20;0.60;;;;;;;;;;517833;28;766;-85
2022/06/26 00:18:58;;;;;;;0.82;0.52;;;;;;;;;;517289;28;1283;-85
2022/06/26 00:19:13;;;;;;;0.87;0.60;;;;;;;;;;513745;28;1255;-85
2022/06/26 00:19:29;;;;;;;2.00;0.70;;;;;;;;;;514330;28;837;-85
2022/06/26 00:19:44;;;;;;;1.90;0.50;;;;;;;;;;515425;28;1400;-85
2022/06/26 00:19:59;;;;;;;1.20;0.50;;;;;;;;;;516131;28;1275;-85
2022/06/26 00:20:15;;;;;;;1.00;0.50;;;;;;;;;;517731;28;1447;-86
2022/06/26 00:20:31;;;;;;;1.30;0.60;;;;;;;;;;517632;28;1328;-86
2022/06/26 00:20:47;;;;;;;1.40;0.70;;;;;;;;;;517162;28;1578;-86
2022/06/26 00:21:03;;;;;;;0.60;0.60;;;;;;;;;;517935;28;1571;-86
2022/06/26 00:21:19;;;;;;;0.60;0.60;;;;;;;;;;515741;28;1503;-86
2022/06/26 00:21:34;;;;;;;0.95;0.63;;;;;;;;;;515108;28;1512;-86
2022/06/26 00:21:50;;;;;;;1.17;0.70;;;;;;;;;;515321;28;1375;-86
2022/06/26 00:22:06;;;;;;;1.00;0.60;;;;;;;;;;517717;28;1473;-85
2022/06/26 00:22:21;;;;;;;0.90;0.60;;;;;;;;;;517400;28;979;-85
2022/06/26 00:22:37;;;;;;;0.80;0.60;;;;;;;;;;513765;28;1538;-85
2022/06/26 00:22:52;;;;;;;1.83;0.60;;;;;;;;;;513972;28;868;-86
2022/06/26 00:23:07;;;;;;;1.87;0.50;;;;;;;;;;513721;28;1447;-86
2022/06/26 00:23:24;;;;;;;1.88;0.60;;;;;;;;;;514229;28;1028;-86
2022/06/26 00:23:39;;;;;;;1.50;0.60;;;;;;;;;;515844;28;909;-86
2022/06/26 00:23:55;;;;;;;0.88;0.50;;;;;;;;;;514326;28;1299;-86
2022/06/26 00:24:11;;;;;;;1.13;0.53;;;;;;;;;;513726;28;1254;-86
2022/06/26 00:24:26;;;;;;;0.90;0.60;;;;;;;;;;513811;28;838;-86
2022/06/26 00:24:42;;;;;;;0.70;0.50;;;;;;;;;;513697;28;1173;-86
2022/06/26 00:24:57;;;;;;;0.70;0.50;;;;;;;;;;513576;28;1299;-86
2022/06/26 00:25:13;;;;;;;0.70;0.40;;;;;;;;;;513318;28;1637;-85
2022/06/26 00:25:28;;;;;;;1.30;0.50;;;;;;;;;;511701;28;1545;-86
2022/06/26 00:25:44;;;;;;;1.60;0.50;;;;;;;;;;511461;29;1481;-86
2022/06/26 00:25:59;;;;;;;0.90;0.50;;;;;;;;;;511776;28;1574;-86
2022/06/26 00:26:15;;;;;;;0.90;0.50;;;;;;;;;;514419;28;1477;-86
2022/06/26 00:26:32;;;;;;;1.17;0.60;;;;;;;;;;513212;28;1567;-85
2022/06/26 00:26:48;;;;;;;1.23;0.50;;;;;;;;;;511422;29;1441;-86
2022/06/26 00:27:06;;;;;;;1.40;0.40;;;;;;;;;;512201;28;1428;-86
2022/06/26 00:27:21;;;;;;;0.90;0.40;;;;;;;;;;511656;28;1414;-87
2022/06/26 00:27:37;;;;;;;0.50;0.50;;;;;;;;;;512810;28;1424;-86
2022/06/26 00:27:52;;;;;;;0.55;0.40;;;;;;;;;;511573;29;1421;-86
2022/06/26 00:28:07;;;;;;;0.63;0.40;;;;;;;;;;513072;28;914;-86
2022/06/26 00:28:23;;;;;;;0.50;0.50;;;;;;;;;;515353;28;1648;-86
2022/06/26 00:28:38;;;;;;;0.80;0.50;;;;;;;;;;513671;28;1185;-86
2022/06/26 00:28:54;;;;;;;1.53;0.50;;;;;;;;;;512864;28;1511;-86
2022/06/26 00:29:09;;;;;;;1.50;0.47;;;;;;;;;;512828;28;1626;-86
2022/06/26 00:29:24;;;;;;;1.00;0.47;;;;;;;;;;515357;28;1322;-86
2022/06/26 00:29:42;;;;;;;0.93;0.50;;;;;;;;;;515361;28;1541;-86
2022/06/26 00:29:57;;;;;;;0.90;0.47;;;;;;;;;;516695;28;1468;-86
2022/06/26 00:30:13;;;;;;;0.80;0.60;;;;;;;;;;512990;28;1613;-86
2022/06/26 00:30:28;;;;;;;0.60;0.55;;;;;;;;;;512713;28;1401;-86
2022/06/26 00:30:44;;;;;;;0.90;0.50;;;;;;;;;;514493;28;1391;-86
2022/06/26 00:31:01;;;;;;;0.85;0.50;;;;;;;;;;513558;28;1497;-86
2022/06/26 00:31:16;;;;;;;0.68;0.50;;;;;;;;;;514807;28;1311;-85
2022/06/26 00:31:31;;;;;;;0.70;0.50;;;;;;;;;;513589;28;1926;-86
2022/06/26 00:31:47;;;;;;;1.70;0.60;;;;;;;;;;511336;28;1578;-86
2022/06/26 00:32:04;;;;;;;2.63;0.60;;;;;;;;;;513775;28;1471;-86
2022/06/26 00:32:19;;;;;;;1.35;0.50;;;;;;;;;;514232;28;1378;-86
2022/06/26 00:32:35;;;;;;;0.80;0.50;;;;;;;;;;517284;28;1759;-86
2022/06/26 00:32:50;;;;;;;0.98;0.50;;;;;;;;;;515724;28;1446;-85
2022/06/26 00:33:06;;;;;;;0.93;0.53;;;;;;;;;;516266;28;1648;-86
2022/06/26 00:33:21;;;;;;;0.63;0.60;;;;;;;;;;516652;28;1328;-85
2022/06/26 00:33:37;;;;;;;0.80;0.60;;;;;;;;;;517992;28;1331;-86
2022/06/26 00:33:58;;;;;;;1.02;0.60;;;;;;;;;;517486;28;1283;-86
2022/06/26 00:34:13;;;;;;;2.45;0.80;;;;;;;;;;515567;28;1452;-86
2022/06/26 00:34:29;;;;;;;2.07;0.70;;;;;;;;;;515762;28;1192;-86
2022/06/26 00:34:45;;;;;;;1.23;0.63;;;;;;;;;;514280;28;836;-86
2022/06/26 00:35:01;;;;;;;0.93;0.50;;;;;;;;;;511572;29;1381;-86
2022/06/26 00:35:16;;;;;;;0.98;0.50;;;;;;;;;;511686;28;988;-86
2022/06/26 00:35:32;;;;;;;0.77;0.50;;;;;;;;;;511870;28;1344;-86
2022/06/26 00:35:47;;;;;;;0.82;0.50;;;;;;;;;;513316;28;1530;-86
2022/06/26 00:36:03;;;;;;;1.00;0.50;;;;;;;;;;514787;28;1695;-86
2022/06/26 00:36:18;;;;;;;0.70;0.50;;;;;;;;;;516277;28;1432;-86
2022/06/26 00:36:34;;;;;;;0.90;0.50;;;;;;;;;;516765;28;1515;-86
2022/06/26 00:36:49;;;;;;;1.15;0.52;;;;;;;;;;517916;28;1535;-86
2022/06/26 00:37:05;;;;;;;0.70;0.50;;;;;;;;;;514118;28;1457;-86
2022/06/26 00:37:20;;;;;;;1.70;0.60;;;;;;;;;;515416;28;1630;-86
2022/06/26 00:37:35;;;;;;;2.37;0.60;;;;;;;;;;515929;28;1644;-86
2022/06/26 00:37:51;;;;;;;1.20;0.50;;;;;;;;;;514268;28;1535;-86
2022/06/26 00:38:06;;;;;;;1.25;0.50;;;;;;;;;;512565;28;1438;-86
2022/06/26 00:38:22;;;;;;;2.30;0.57;;;;;;;;;;512438;28;1605;-86
2022/06/26 00:38:37;;;;;;;2.47;0.50;;;;;;;;;;516439;28;1596;-86
2022/06/26 00:38:54;;;;;;;1.53;0.50;;;;;;;;;;513834;28;1653;-85
2022/06/26 00:39:09;;;;;;;0.60;0.50;;;;;;;;;;509273;29;1497;-86
2022/06/26 00:39:25;;;;;;;0.43;0.43;;;;;;;;;;509643;29;1514;-86
2022/06/26 00:39:40;;;;;;;0.90;0.50;;;;;;;;;;511308;28;1413;-86
2022/06/26 00:39:56;;;;;;;1.30;0.50;;;;;;;;;;512230;28;1482;-86
2022/06/26 00:40:12;;;;;;;1.05;0.50;;;;;;;;;;514207;28;1268;-86
2022/06/26 00:40:27;;;;;;;0.77;0.50;;;;;;;;;;515772;28;1229;-86
2022/06/26 00:40:42;;;;;;;0.90;0.50;;;;;;;;;;517665;28;1158;-86
2022/06/26 00:40:58;;;;;;;1.03;0.60;;;;;;;;;;517764;28;1318;-86
2022/06/26 00:41:13;;;;;;;1.20;0.70;;;;;;;;;;517664;28;1128;-86
2022/06/26 00:41:29;;;;;;;0.97;0.60;;;;;;;;;;515563;28;1175;-86
2022/06/26 00:41:44;;;;;;;0.83;0.40;;;;;;;;;;515525;28;1158;-86
2022/06/26 00:42:00;;;;;;;2.25;0.60;;;;;;;;;;511786;28;1340;-86
2022/06/26 00:42:16;;;;;;;1.95;0.60;;;;;;;;;;512433;28;1567;-85
2022/06/26 00:42:32;;;;;;;0.70;0.60;;;;;;;;;;515357;28;1371;-86
2022/06/26 00:42:47;;;;;;;1.37;0.80;;;;;;;;;;513640;28;1895;-86
2022/06/26 00:43:03;;;;;;;2.38;0.90;;;;;;;;;;513896;28;1336;-86
2022/06/26 00:43:18;;;;;;;1.87;0.80;;;;;;;;;;514929;28;1549;-86
2022/06/26 00:43:33;;;;;;;1.85;0.80;;;;;;;;;;515487;28;1462;-86
2022/06/26 00:43:49;;;;;;;2.10;0.87;;;;;;;;;;513871;28;1461;-86
2022/06/26 00:44:31;;;;;;;1.08;0.80;;;;;;;;;;515689;28;1416;-86
2022/06/26 00:44:46;;;;;;;0.77;0.60;;;;;;;;;;510682;28;1497;-86
2022/06/26 00:45:03;;;;;;;1.48;0.85;;;;;;;;;;515552;28;1468;-86
2022/06/26 00:45:18;;;;;;;2.15;1.20;;;;;;;;;;515423;28;1401;-85
2022/06/26 00:45:34;;;;;;;1.70;1.10;;;;;;;;;;515650;28;1192;-86
2022/06/26 00:45:49;;;;;;;1.65;0.82;;;;;;;;;;513165;28;1334;-86
2022/06/26 00:46:05;;;;;;;1.40;0.70;;;;;;;;;;510366;29;1473;-85
2022/06/26 00:46:24;;;;;;;1.42;0.80;;;;;;;;;;513562;28;1299;-85
2022/06/26 00:46:39;;;;;;;1.10;0.65;;;;;;;;;;513710;28;928;-86
2022/06/26 00:46:55;;;;;;;0.53;0.50;;;;;;;;;;512719;28;965;-86
2022/06/26 00:47:11;;;;;;;0.47;0.47;;;;;;;;;;514419;28;1224;-86
2022/06/26 00:47:26;;;;;;;1.80;0.50;;;;;;;;;;516429;28;1327;-86
2022/06/26 00:47:42;;;;;;;2.13;0.60;;;;;;;;;;516741;28;1415;-86
2022/06/26 00:47:57;;;;;;;0.90;0.70;;;;;;;;;;514361;28;1428;-86
2022/06/26 00:48:12;;;;;;;0.70;0.60;;;;;;;;;;515843;28;1388;-87
2022/06/26 00:48:28;;;;;;;0.70;0.50;;;;;;;;;;515466;28;1703;-86
2022/06/26 00:48:44;;;;;;;0.80;0.60;;;;;;;;;;515355;28;1503;-86
2022/06/26 00:49:00;;;;;;;0.80;0.60;;;;;;;;;;513143;28;1427;-86
2022/06/26 00:49:15;;;;;;;1.20;0.50;;;;;;;;;;512120;28;1679;-86
2022/06/26 00:49:30;;;;;;;1.42;0.60;;;;;;;;;;513979;28;1376;-86
2022/06/26 00:49:47;;;;;;;1.67;0.60;;;;;;;;;;513839;28;1591;-86
2022/06/26 00:50:05;;;;;;;1.77;0.60;;;;;;;;;;514208;28;1477;-86
2022/06/26 00:50:20;;;;;;;0.90;0.60;;;;;;;;;;517803;28;1522;-86
2022/06/26 00:50:36;;;;;;;0.60;0.50;;;;;;;;;;517058;28;1568;-86
2022/06/26 00:50:51;;;;;;;1.00;0.50;;;;;;;;;;512865;28;1469;-86
2022/06/26 00:51:07;;;;;;;1.33;0.60;;;;;;;;;;514372;28;1578;-86
2022/06/26 00:51:24;;;;;;;1.98;0.60;;;;;;;;;;515421;28;1377;-86
2022/06/26 00:51:44;;;;;;;1.77;0.60;;;;;;;;;;514215;28;1396;-86
2022/06/26 00:52:00;;;;;;;1.77;0.60;;;;;;;;;;514755;28;1428;-86
2022/06/26 00:52:18;;;;;;;2.88;0.70;;;;;;;;;;513553;28;1483;-86
2022/06/26 00:52:36;;;;;;;2.58;0.70;;;;;;;;;;517674;28;1508;-86
2022/06/26 00:52:53;;;;;;;0.98;0.50;;;;;;;;;;516438;28;1715;-86
2022/06/26 00:53:10;;;;;;;1.33;0.50;;;;;;;;;;516896;28;1333;-86
2022/06/26 00:53:25;;;;;;;1.80;0.70;;;;;;;;;;513927;28;1536;-87
2022/06/26 00:53:41;;;;;;;1.40;0.70;;;;;;;;;;513587;28;1509;-86
2022/06/26 00:53:56;;;;;;;1.23;0.60;;;;;;;;;;513999;28;1372;-86
2022/06/26 00:54:12;;;;;;;1.55;0.60;;;;;;;;;;514236;28;1403;-86
2022/06/26 00:54:29;;;;;;;1.52;0.57;;;;;;;;;;515311;28;1252;-86
2022/06/26 00:54:44;;;;;;;2.00;0.60;;;;;;;;;;516292;28;1667;-85
2022/06/26 00:55:00;;;;;;;1.58;0.60;;;;;;;;;;517473;28;1581;-86
2022/06/26 00:55:16;;;;;;;0.68;0.50;;;;;;;;;;517342;28;1683;-86
2022/06/26 00:55:33;;;;;;;0.50;0.50;;;;;;;;;;516069;28;1395;-86
2022/06/26 00:55:48;;;;;;;1.42;0.60;;;;;;;;;;512615;28;1452;-86
2022/06/26 00:56:04;;;;;;;1.73;0.63;;;;;;;;;;515081;28;1610;-86
2022/06/26 00:56:19;;;;;;;0.70;0.60;;;;;;;;;;516452;28;1403;-86
2022/06/26 00:56:36;;;;;;;0.75;0.70;;;;;;;;;;513590;28;1491;-86
2022/06/26 00:56:56;;;;;;;1.20;0.80;;;;;;;;;;513449;28;1340;-85
2022/06/26 00:57:12;;;;;;;1.35;0.65;;;;;;;;;;513636;28;920;-86
2022/06/26 00:57:28;;;;;;;0.80;0.60;;;;;;;;;;515982;28;1389;-86
2022/06/26 00:57:46;;;;;;;0.77;0.60;;;;;;;;;;515696;28;1344;-86
2022/06/26 00:58:02;;;;;;;1.02;0.50;;;;;;;;;;511997;29;1249;-86
2022/06/26 00:58:17;;;;;;;1.00;0.50;;;;;;;;;;511435;28;1493;-86
2022/06/26 00:58:33;;;;;;;1.50;0.60;;;;;;;;;;514156;28;1464;-86
2022/06/26 00:58:49;;;;;;;1.67;0.60;;;;;;;;;;511957;28;1429;-86
2022/06/26 00:59:06;;;;;;;0.70;0.57;;;;;;;;;;509990;29;1685;-87
2022/06/26 00:59:24;;;;;;;1.30;0.55;;;;;;;;;;509438;29;1570;-86
2022/06/26 00:59:40;;;;;;;1.13;0.60;;;;;;;;;;512880;28;1467;-86
2022/06/26 00:59:56;;;;;;;0.87;0.60;;;;;;;;;;512102;28;1512;-86
2022/06/26 01:00:12;;;;;;;1.90;0.70;;;;;;;;;;511391;28;1550;-86
2022/06/26 01:00:28;;;;;;;1.40;0.60;;;;;;;;;;513038;28;1500;-86
2022/06/26 01:00:43;;;;;;;0.60;0.50;;;;;;;;;;517462;28;1597;-86
2022/06/26 01:00:58;;;;;;;0.90;0.60;;;;;;;;;;519158;28;1474;-86
2022/06/26 01:01:14;;;;;;;1.17;0.70;;;;;;;;;;513605;28;1516;-86
2022/06/26 01:01:31;;;;;;;2.20;0.63;;;;;;;;;;514421;28;1424;-86
2022/06/26 01:01:47;;;;;;;2.00;0.80;;;;;;;;;;514102;28;1441;-87
2022/06/26 01:02:02;;;;;;;0.83;0.80;;;;;;;;;;513844;28;1596;-86
2022/06/26 01:02:18;;;;;;;0.80;0.73;;;;;;;;;;513279;28;1597;-86
2022/06/26 01:02:33;;;;;;;0.80;0.70;;;;;;;;;;513693;28;1762;-86
2022/06/26 01:02:49;;;;;;;1.47;0.67;;;;;;;;;;513791;28;1383;-86
2022/06/26 01:03:04;;;;;;;1.27;0.60;;;;;;;;;;512238;28;1540;-86
2022/06/26 01:03:20;;;;;;;0.80;0.50;;;;;;;;;;512200;28;1440;-86
2022/06/26 01:03:35;;;;;;;1.17;0.60;;;;;;;;;;512396;28;1576;-86
2022/06/26 01:03:50;;;;;;;1.23;0.63;;;;;;;;;;511981;29;1747;-87
2022/06/26 01:04:06;;;;;;;1.20;0.60;;;;;;;;;;509729;29;1567;-87
2022/06/26 01:04:22;;;;;;;1.75;0.70;;;;;;;;;;510655;29;1290;-86
2022/06/26 01:04:38;;;;;;;2.30;0.77;;;;;;;;;;513732;28;1501;-86
2022/06/26 01:04:53;;;;;;;2.90;0.70;;;;;;;;;;512045;28;1448;-86
2022/06/26 01:05:10;;;;;;;1.90;0.60;;;;;;;;;;513623;28;1700;-86
2022/06/26 01:05:25;;;;;;;0.60;0.55;;;;;;;;;;516027;28;1490;-86
2022/06/26 01:05:41;;;;;;;0.60;0.60;;;;;;;;;;516497;28;924;-85
2022/06/26 01:05:56;;;;;;;0.63;0.60;;;;;;;;;;518528;28;1246;-87
2022/06/26 01:06:12;;;;;;;0.90;0.60;;;;;;;;;;518076;28;1216;-86
2022/06/26 01:06:29;;;;;;;1.70;0.60;;;;;;;;;;515895;28;1169;-85
2022/06/26 01:06:46;;;;;;;1.33;0.60;;;;;;;;;;515861;28;896;-86
2022/06/26 01:07:02;;;;;;;1.30;0.60;;;;;;;;;;511807;28;1402;-86
2022/06/26 01:07:17;;;;;;;1.50;0.65;;;;;;;;;;513871;28;1482;-86
2022/06/26 01:07:33;;;;;;;1.45;0.70;;;;;;;;;;513888;28;1429;-86
2022/06/26 01:07:49;;;;;;;1.43;0.70;;;;;;;;;;511263;28;1548;-86
2022/06/26 01:08:07;;;;;;;0.80;0.70;;;;;;;;;;512260;28;1550;-86
2022/06/26 01:08:22;;;;;;;2.30;0.70;;;;;;;;;;513290;28;1373;-86
2022/06/26 01:08:37;;;;;;;2.60;0.70;;;;;;;;;;511957;28;1534;-86
2022/06/26 01:08:54;;;;;;;1.08;0.68;;;;;;;;;;512937;28;1451;-85
2022/06/26 01:09:10;;;;;;;0.80;0.60;;;;;;;;;;515049;28;1707;-86
2022/06/26 01:09:26;;;;;;;1.50;0.70;;;;;;;;;;515251;28;1431;-86
2022/06/26 01:09:42;;;;;;;2.13;0.80;;;;;;;;;;517981;28;1372;-86
2022/06/26 01:09:58;;;;;;;2.30;0.77;;;;;;;;;;518640;28;1475;-86
2022/06/26 01:10:15;;;;;;;1.77;0.77;;;;;;;;;;515327;28;1506;-86
2022/06/26 01:10:30;;;;;;;1.08;0.70;;;;;;;;;;516517;28;1621;-86
2022/06/26 01:10:49;;;;;;;1.20;0.60;;;;;;;;;;516309;28;1558;-86
2022/06/26 01:11:17;;;;;;;1.35;0.70;;;;;;;;;;513635;28;1716;-87
2022/06/26 01:11:32;;;;;;;0.95;0.70;;;;;;;;;;514979;28;1918;-86
2022/06/26 01:11:48;;;;;;;1.42;0.60;;;;;;;;;;516127;28;1509;-86
2022/06/26 01:12:06;;;;;;;3.13;0.70;;;;;;;;;;513701;28;1367;-86
2022/06/26 01:12:22;;;;;;;2.55;0.77;;;;;;;;;;514628;28;1346;-87
2022/06/26 01:12:37;;;;;;;0.82;0.70;;;;;;;;;;513533;28;1453;-87
2022/06/26 01:12:53;;;;;;;1.20;0.70;;;;;;;;;;514246;28;1470;-87
2022/06/26 01:13:10;;;;;;;1.30;0.60;;;;;;;;;;514347;28;1805;-86
2022/06/26 01:13:25;;;;;;;3.42;0.60;;;;;;;;;;514925;28;1441;-87
2022/06/26 01:13:41;;;;;;;3.23;0.70;;;;;;;;;;515931;28;1589;-87
2022/06/26 01:13:58;;;;;;;0.77;0.70;;;;;;;;;;514728;28;1480;-87
2022/06/26 01:14:14;;;;;;;1.20;0.70;;;;;;;;;;515762;28;1755;-87
2022/06/26 01:14:30;;;;;;;1.48;0.70;;;;;;;;;;514954;28;1472;-86
2022/06/26 01:14:46;;;;;;;1.70;0.70;;;;;;;;;;512460;28;1425;-86
2022/06/26 01:15:08;;;;;;;2.35;0.80;;;;;;;;;;513561;28;1430;-86
2022/06/26 01:15:23;;;;;;;1.33;0.70;;;;;;;;;;513184;28;1639;-87
2022/06/26 01:15:39;;;;;;;0.80;0.60;;;;;;;;;;513977;28;1768;-87
2022/06/26 01:15:55;;;;;;;1.15;0.70;;;;;;;;;;516539;28;1738;-86
2022/06/26 01:16:12;;;;;;;1.13;0.70;;;;;;;;;;515596;28;1522;-87
2022/06/26 01:16:27;;;;;;;1.90;0.70;;;;;;;;;;513717;28;1536;-86
2022/06/26 01:16:43;;;;;;;2.10;0.70;;;;;;;;;;516265;28;1536;-87
2022/06/26 01:17:01;;;;;;;1.23;0.63;;;;;;;;;;513494;28;1533;-87
2022/06/26 01:17:17;;;;;;;2.03;0.80;;;;;;;;;;513417;28;1422;-87
2022/06/26 01:17:33;;;;;;;1.63;0.70;;;;;;;;;;513843;28;1559;-87
2022/06/26 01:17:49;;;;;;;1.08;0.60;;;;;;;;;;513775;28;1360;-86
2022/06/26 01:18:04;;;;;;;1.48;0.63;;;;;;;;;;515792;28;1320;-87
2022/06/26 01:18:21;;;;;;;1.63;0.70;;;;;;;;;;513847;28;1185;-86
2022/06/26 01:18:36;;;;;;;1.25;0.70;;;;;;;;;;515792;28;1385;-86
2022/06/26 01:18:53;;;;;;;1.90;0.70;;;;;;;;;;515819;28;1193;-86
2022/06/26 01:19:10;;;;;;;1.80;0.60;;;;;;;;;;513857;28;1679;-87
2022/06/26 01:19:26;;;;;;;0.60;0.60;;;;;;;;;;513673;28;1579;-87
2022/06/26 01:19:42;;;;;;;1.08;0.60;;;;;;;;;;513893;28;1422;-87
2022/06/26 01:19:58;;;;;;;1.65;0.70;;;;;;;;;;513528;28;1370;-87
2022/06/26 01:20:14;;;;;;;1.30;0.70;;;;;;;;;;514680;28;1735;-86
2022/06/26 01:20:30;;;;;;;1.15;0.70;;;;;;;;;;515578;28;1437;-86
2022/06/26 01:20:54;;;;;;;1.65;0.70;;;;;;;;;;514800;28;1375;-87
2022/06/26 01:21:10;;;;;;;2.72;0.70;;;;;;;;;;515236;28;1420;-87
2022/06/26 01:21:25;;;;;;;2.92;0.70;;;;;;;;;;515586;28;1410;-87
2022/06/26 01:21:41;;;;;;;1.95;0.70;;;;;;;;;;515873;28;1487;-87
2022/06/26 01:21:56;;;;;;;1.20;0.70;;;;;;;;;;513545;28;1454;-87
2022/06/26 01:22:12;;;;;;;1.73;0.70;;;;;;;;;;514402;28;1348;-87
2022/06/26 01:22:29;;;;;;;2.03;0.70;;;;;;;;;;515390;28;1442;-87
2022/06/26 01:22:44;;;;;;;1.70;0.70;;;;;;;;;;517727;28;1619;-87
2022/06/26 01:23:04;;;;;;;2.15;0.80;;;;;;;;;;518155;28;1420;-87
2022/06/26 01:23:20;;;;;;;1.98;0.80;;;;;;;;;;516934;28;1567;-87
2022/06/26 01:23:36;;;;;;;1.27;0.80;;;;;;;;;;515602;28;1408;-87
2022/06/26 01:23:53;;;;;;;1.30;0.68;;;;;;;;;;516181;28;1426;-86
2022/06/26 01:24:09;;;;;;;1.23;0.60;;;;;;;;;;513417;28;1528;-87
2022/06/26 01:24:24;;;;;;;2.47;0.80;;;;;;;;;;515230;28;1232;-87
2022/06/26 01:24:39;;;;;;;3.08;0.82;;;;;;;;;;517693;28;1549;-87
2022/06/26 01:24:55;;;;;;;2.83;0.70;;;;;;;;;;515697;28;1541;-87
2022/06/26 01:25:10;;;;;;;3.00;0.80;;;;;;;;;;514831;28;1488;-86
2022/06/26 01:25:37;;;;;;;2.20;0.80;;;;;;;;;;515843;28;1416;-86
2022/06/26 01:25:52;;;;;;;0.93;0.60;;;;;;;;;;517765;28;1467;-87
2022/06/26 01:26:08;;;;;;;1.33;0.70;;;;;;;;;;513916;28;1663;-87
2022/06/26 01:26:24;;;;;;;2.50;0.70;;;;;;;;;;510964;29;1358;-87
2022/06/26 01:26:40;;;;;;;2.95;0.70;;;;;;;;;;515897;28;1308;-87
2022/06/26 01:26:55;;;;;;;3.20;0.77;;;;;;;;;;516411;28;1568;-85
2022/06/26 01:27:11;;;;;;;2.20;0.70;;;;;;;;;;516571;28;1691;-87
2022/06/26 01:27:26;;;;;;;1.05;0.70;;;;;;;;;;516357;28;1343;-87
2022/06/26 01:27:42;;;;;;;1.10;0.73;;;;;;;;;;512134;28;1410;-87
2022/06/26 01:27:58;;;;;;;1.92;0.70;;;;;;;;;;513544;28;1328;-86
2022/06/26 01:28:14;;;;;;;1.70;0.70;;;;;;;;;;516350;28;1575;-87
2022/06/26 01:28:30;;;;;;;1.85;0.80;;;;;;;;;;516048;28;1702;-87
2022/06/26 01:28:46;;;;;;;2.00;0.80;;;;;;;;;;514878;28;1425;-87
2022/06/26 01:29:03;;;;;;;1.17;0.77;;;;;;;;;;514858;28;1712;-86
2022/06/26 01:29:19;;;;;;;1.17;0.70;;;;;;;;;;512845;28;1445;-87
2022/06/26 01:29:34;;;;;;;2.03;0.70;;;;;;;;;;515155;28;1493;-86
2022/06/26 01:29:50;;;;;;;3.53;0.80;;;;;;;;;;515384;28;1553;-87
2022/06/26 01:30:06;;;;;;;3.00;0.80;;;;;;;;;;513351;28;1373;-86
2022/06/26 01:30:23;;;;;;;1.25;0.70;;;;;;;;;;515551;28;1884;-87
2022/06/26 01:30:39;;;;;;;1.23;0.77;;;;;;;;;;519756;28;1729;-86
2022/06/26 01:30:55;;;;;;;2.38;0.90;;;;;;;;;;519417;28;1426;-87
2022/06/26 01:31:10;;;;;;;2.22;0.80;;;;;;;;;;515383;28;1695;-87
2022/06/26 01:31:26;;;;;;;2.93;0.80;;;;;;;;;;517540;28;2002;-86
2022/06/26 01:31:41;;;;;;;3.33;0.80;;;;;;;;;;515620;28;1527;-87
2022/06/26 01:31:58;;;;;;;1.87;0.77;;;;;;;;;;515197;28;1441;-86
2022/06/26 01:32:14;;;;;;;2.05;0.90;;;;;;;;;;516582;28;1456;-87
2022/06/26 01:32:30;;;;;;;2.50;0.80;;;;;;;;;;515613;28;1350;-87
2022/06/26 01:32:45;;;;;;;2.38;0.63;;;;;;;;;;514522;28;1411;-87
2022/06/26 01:33:01;;;;;;;1.70;0.70;;;;;;;;;;515018;28;1532;-87
2022/06/26 01:33:17;;;;;;;1.77;0.70;;;;;;;;;;516668;28;1627;-87
2022/06/26 01:33:35;;;;;;;3.50;0.70;;;;;;;;;;517104;28;1650;-87
2022/06/26 01:33:50;;;;;;;4.13;0.80;;;;;;;;;;513953;28;1589;-87
2022/06/26 01:34:08;;;;;;;2.13;0.70;;;;;;;;;;513899;28;1696;-87
2022/06/26 01:34:23;;;;;;;1.75;0.73;;;;;;;;;;512518;28;1677;-86
2022/06/26 01:34:39;;;;;;;0.98;0.70;;;;;;;;;;514415;28;1424;-87
2022/06/26 01:34:54;;;;;;;2.28;0.75;;;;;;;;;;511970;28;1358;-86
2022/06/26 01:35:10;;;;;;;3.20;0.80;;;;;;;;;;510229;29;1489;-87
2022/06/26 01:35:25;;;;;;;2.20;0.73;;;;;;;;;;513472;28;1829;-87
2022/06/26 01:35:41;;;;;;;2.08;0.80;;;;;;;;;;514176;28;1232;-87
2022/06/26 01:35:56;;;;;;;1.67;0.73;;;;;;;;;;513425;28;1608;-86
2022/06/26 01:36:12;;;;;;;1.17;0.70;;;;;;;;;;514374;28;1476;-86
2022/06/26 01:36:27;;;;;;;1.87;0.70;;;;;;;;;;515818;28;1575;-87
2022/06/26 01:36:43;;;;;;;2.30;0.82;;;;;;;;;;516447;28;1523;-87
2022/06/26 01:36:58;;;;;;;2.30;0.90;;;;;;;;;;519026;28;1597;-86
2022/06/26 01:37:13;;;;;;;2.53;0.80;;;;;;;;;;516962;28;1420;-87
2022/06/26 01:37:30;;;;;;;2.40;0.80;;;;;;;;;;517505;28;1792;-87
2022/06/26 01:37:45;;;;;;;1.73;0.80;;;;;;;;;;515518;28;1470;-86
2022/06/26 01:38:21;;;;;;;1.27;0.70;;;;;;;;;;513846;28;2027;-87
2022/06/26 01:38:37;;;;;;;1.73;0.90;;;;;;;;;;510258;28;1390;-87
2022/06/26 01:38:52;;;;;;;1.27;0.80;;;;;;;;;;511762;28;1411;-87
2022/06/26 01:39:07;;;;;;;1.90;0.80;;;;;;;;;;510874;29;1602;-87
2022/06/26 01:39:23;;;;;;;2.78;1.00;;;;;;;;;;512733;28;1586;-87
2022/06/26 01:39:38;;;;;;;3.17;0.97;;;;;;;;;;512166;28;1438;-87